Time;durP1;ratioP1;P1;durP2;ratioP2;P2;SDS_P1;SDS_P2;PMS_P1;PMS_P2;Temp;Humidity;BMP_temperature;BMP_pressure;BME280_temperature;BME280_humidity;BME280_pressure;Samples;Min_cycle;Max_cycle;Signal;HPM_P1;HPM_P2
2022/03/21 00:00:59;;;;;;;21.17;10.32;;;6.60;54.50;;;;;;5150898;27;20082;-47
2022/03/21 00:03:28;;;;;;;16.65;10.85;;;6.60;54.20;;;;;;5150894;27;20018;-47
2022/03/21 00:05:55;;;;;;;19.02;11.32;;;6.50;54.40;;;;;;5148584;27;20023;-49
2022/03/21 00:08:24;;;;;;;20.98;11.48;;;6.50;54.20;;;;;;5150287;27;20024;-46
2022/03/21 00:10:51;;;;;;;21.05;11.23;;;6.50;54.30;;;;;;5150674;27;20046;-46
2022/03/21 00:13:17;;;;;;;17.17;10.90;;;6.50;54.50;;;;;;5150271;27;20023;-49
2022/03/21 00:15:43;;;;;;;16.58;10.77;;;6.50;54.70;;;;;;5150100;27;20094;-50
2022/03/21 00:18:10;;;;;;;21.42;11.77;;;6.40;54.80;;;;;;5150478;27;20019;-50
2022/03/21 00:20:36;;;;;;;17.40;11.75;;;6.40;54.90;;;;;;5150501;27;20101;-48
2022/03/21 00:23:02;;;;;;;20.30;11.50;;;6.30;55.30;;;;;;5141348;27;20114;-47
2022/03/21 00:25:27;;;;;;;16.77;10.88;;;6.30;55.50;;;;;;5138566;27;20034;-46
2022/03/21 00:27:54;;;;;;;18.90;12.02;;;6.20;55.50;;;;;;5148719;27;20079;-46
2022/03/21 00:30:19;;;;;;;23.00;11.98;;;6.30;55.60;;;;;;5150162;27;20065;-47
2022/03/21 00:32:46;;;;;;;21.63;11.57;;;6.30;55.90;;;;;;5150195;27;20058;-47
2022/03/21 00:35:15;;;;;;;20.67;11.75;;;6.20;56.20;;;;;;5149002;27;20059;-48
2022/03/21 00:37:42;;;;;;;19.08;10.95;;;6.10;56.00;;;;;;5148291;27;20395;-47
2022/03/21 00:40:09;;;;;;;18.42;11.88;;;6.10;56.60;;;;;;5149937;27;20058;-46
2022/03/21 00:42:35;;;;;;;22.10;12.07;;;6.00;56.40;;;;;;5150180;27;20027;-46
2022/03/21 00:45:02;;;;;;;20.42;11.55;;;6.00;56.80;;;;;;5150455;27;20023;-46
2022/03/21 00:47:28;;;;;;;18.17;11.57;;;6.00;56.90;;;;;;5149272;27;20041;-46
2022/03/21 00:49:53;;;;;;;20.90;11.82;;;6.00;56.60;;;;;;5150970;27;20499;-46
2022/03/21 00:52:20;;;;;;;17.27;11.38;;;6.00;56.70;;;;;;5154284;27;20019;-46
2022/03/21 00:54:46;;;;;;;20.38;11.63;;;5.90;56.70;;;;;;5138996;27;20080;-50
2022/03/21 00:57:12;;;;;;;22.40;12.32;;;5.90;57.00;;;;;;5149081;27;20459;-50
2022/03/21 00:59:37;;;;;;;17.50;11.50;;;5.90;57.30;;;;;;5153817;27;20030;-46
2022/03/21 01:02:03;;;;;;;20.23;12.88;;;5.90;57.30;;;;;;5153757;27;20023;-48
2022/03/21 01:04:29;;;;;;;20.27;11.85;;;5.80;57.20;;;;;;5154354;27;20102;-47
2022/03/21 01:06:54;;;;;;;25.17;12.98;;;5.80;58.10;;;;;;5151853;27;20152;-46
2022/03/21 01:09:20;;;;;;;23.23;12.30;;;5.80;58.60;;;;;;5153531;27;20034;-46
2022/03/21 01:11:46;;;;;;;22.50;12.30;;;5.80;58.20;;;;;;5153907;27;20474;-47
2022/03/21 01:14:12;;;;;;;22.65;13.23;;;5.70;58.20;;;;;;5153759;27;20042;-46
2022/03/21 01:16:38;;;;;;;20.73;13.13;;;5.70;58.10;;;;;;5151693;27;20467;-46
2022/03/21 01:19:06;;;;;;;23.52;13.32;;;5.60;58.50;;;;;;5153406;27;20268;-47
2022/03/21 01:21:32;;;;;;;25.38;12.93;;;5.60;58.90;;;;;;5153469;27;20117;-47
2022/03/21 01:23:58;;;;;;;21.33;13.05;;;5.60;59.00;;;;;;5145261;27;20029;-47
2022/03/21 01:26:24;;;;;;;21.58;13.30;;;5.60;58.80;;;;;;5142434;27;20450;-47
2022/03/21 01:28:49;;;;;;;22.88;13.50;;;5.60;58.80;;;;;;5153144;27;20031;-48
2022/03/21 01:31:15;;;;;;;20.05;12.30;;;5.50;58.80;;;;;;5153228;27;20026;-46
2022/03/21 01:33:41;;;;;;;23.63;13.00;;;5.50;59.00;;;;;;5153304;27;20165;-47
2022/03/21 01:36:07;;;;;;;23.48;13.35;;;5.40;59.30;;;;;;5152570;27;20555;-46
2022/03/21 01:38:33;;;;;;;21.33;12.93;;;5.40;59.30;;;;;;5151528;27;20378;-47
2022/03/21 01:40:58;;;;;;;23.50;14.32;;;5.40;59.80;;;;;;5153173;27;20019;-46
2022/03/21 01:43:24;;;;;;;25.17;13.88;;;5.40;59.40;;;;;;5151631;27;20474;-48
2022/03/21 01:45:49;;;;;;;23.00;14.15;;;5.40;59.20;;;;;;5152316;27;20030;-48
2022/03/21 01:48:15;;;;;;;22.70;13.98;;;5.40;59.30;;;;;;5152978;27;20019;-46
2022/03/21 01:50:42;;;;;;;23.23;13.90;;;5.30;60.00;;;;;;5152690;27;20038;-46
2022/03/21 01:55:57;;;;;;;20.98;13.35;;;5.30;60.20;;;;;;5143630;27;20495;-47
2022/03/21 01:58:24;;;;;;;24.58;13.98;;;5.30;60.00;;;;;;5152679;27;20414;-46
2022/03/21 02:00:51;;;;;;;31.65;14.63;;;5.30;60.30;;;;;;5152596;27;20037;-48
2022/03/21 02:03:19;;;;;;;26.42;14.35;;;5.30;60.30;;;;;;5150404;27;20392;-50
2022/03/21 02:05:47;;;;;;;23.52;13.65;;;5.20;60.80;;;;;;5151790;27;20030;-48
2022/03/21 02:08:13;;;;;;;23.63;14.02;;;5.20;60.40;;;;;;5152532;27;20030;-49
2022/03/21 02:10:41;;;;;;;26.52;14.63;;;5.20;60.80;;;;;;5152815;27;20037;-45
2022/03/21 02:13:08;;;;;;;25.73;14.05;;;5.20;61.00;;;;;;5152715;27;20019;-46
2022/03/21 02:15:34;;;;;;;26.83;13.07;;;5.20;61.00;;;;;;5151656;27;20034;-46
2022/03/21 02:18:01;;;;;;;25.45;13.90;;;5.20;60.90;;;;;;5152312;27;20022;-46
2022/03/21 02:20:31;;;;;;;22.45;13.80;;;5.10;61.10;;;;;;5152602;27;20022;-47
2022/03/21 02:23:53;;;;;;;25.75;13.43;;;5.10;61.00;;;;;;5131963;27;20035;-46
2022/03/21 02:26:39;;;;;;;25.52;13.57;;;5.10;60.90;;;;;;4988031;28;20493;-47
2022/03/21 02:29:05;;;;;;;25.38;14.75;;;5.10;61.10;;;;;;4985427;28;20034;-47
2022/03/21 02:31:34;;;;;;;30.40;14.18;;;5.10;61.20;;;;;;5079080;27;20040;-46
2022/03/21 02:34:00;;;;;;;26.75;15.32;;;5.10;61.40;;;;;;5118941;27;20023;-46
2022/03/21 02:36:27;;;;;;;27.42;14.50;;;5.00;61.40;;;;;;5119320;27;20016;-46
2022/03/21 02:38:57;;;;;;;22.88;14.15;;;5.00;61.80;;;;;;5120019;27;20022;-46
2022/03/21 02:41:23;;;;;;;25.83;13.95;;;5.00;61.60;;;;;;5135881;27;20016;-46
2022/03/21 02:43:53;;;;;;;27.90;14.88;;;4.90;61.70;;;;;;5119811;27;20077;-47
2022/03/21 02:46:19;;;;;;;26.75;14.63;;;4.90;62.00;;;;;;5118291;27;20080;-46
2022/03/21 02:48:46;;;;;;;28.33;16.52;;;4.90;62.10;;;;;;5119882;27;20391;-46
2022/03/21 02:51:12;;;;;;;26.40;15.13;;;4.90;61.80;;;;;;5121307;27;20023;-46
2022/03/21 02:53:39;;;;;;;25.52;14.85;;;4.90;62.20;;;;;;5123883;27;20091;-46
2022/03/21 02:56:05;;;;;;;25.38;14.13;;;4.90;62.20;;;;;;5126345;27;20445;-45
2022/03/21 02:58:30;;;;;;;24.15;14.30;;;4.80;62.90;;;;;;5119059;27;20066;-50
2022/03/21 03:01:13;;;;;;;24.90;14.57;;;4.90;62.40;;;;;;5121082;27;20034;-46
2022/03/21 03:03:39;;;;;;;25.80;15.65;;;4.80;62.10;;;;;;5120153;27;20409;-45
2022/03/21 03:06:05;;;;;;;27.58;15.25;;;4.90;62.40;;;;;;5118729;27;20246;-46
2022/03/21 03:08:50;;;;;;;26.00;15.15;;;4.80;62.40;;;;;;5117742;27;20124;-47
2022/03/21 03:11:37;;;;;;;29.55;15.98;;;4.70;62.70;;;;;;5051882;28;20060;-46
2022/03/21 03:14:03;;;;;;;25.30;15.57;;;4.70;62.60;;;;;;5076637;28;20101;-46
2022/03/21 03:16:29;;;;;;;25.92;14.68;;;4.70;63.00;;;;;;5116685;27;20380;-45
2022/03/21 03:18:55;;;;;;;23.95;15.02;;;4.80;63.10;;;;;;5118955;27;20255;-45
2022/03/21 03:21:24;;;;;;;23.77;14.57;;;4.80;62.70;;;;;;5117646;27;20099;-46
2022/03/21 03:23:51;;;;;;;24.45;15.45;;;4.70;62.70;;;;;;5116714;27;20032;-46
2022/03/21 03:26:17;;;;;;;27.83;15.63;;;4.70;62.90;;;;;;5123697;27;20484;-47
2022/03/21 03:28:43;;;;;;;24.80;14.15;;;4.70;62.70;;;;;;5115201;27;20030;-45
2022/03/21 03:31:09;;;;;;;30.42;16.08;;;4.70;62.90;;;;;;5109659;28;20020;-45
2022/03/21 03:33:35;;;;;;;26.52;14.98;;;4.60;63.00;;;;;;5109736;28;20031;-45
2022/03/21 03:36:00;;;;;;;26.90;14.98;;;4.60;63.30;;;;;;5108932;28;20527;-45
2022/03/21 03:38:26;;;;;;;24.80;15.02;;;4.60;63.50;;;;;;5109434;28;20114;-46
2022/03/21 03:40:53;;;;;;;28.50;15.55;;;4.60;63.50;;;;;;5108019;28;20027;-47
2022/03/21 03:43:18;;;;;;;25.83;15.20;;;4.50;63.80;;;;;;5109445;28;20054;-46
2022/03/21 03:45:44;;;;;;;23.63;15.05;;;4.50;63.90;;;;;;5109058;28;20059;-45
2022/03/21 03:48:10;;;;;;;26.55;15.50;;;4.50;64.00;;;;;;5109153;28;20051;-46
2022/03/21 03:50:35;;;;;;;21.52;14.73;;;4.40;64.10;;;;;;5109326;28;20362;-46
2022/03/21 03:53:01;;;;;;;24.52;14.73;;;4.40;64.10;;;;;;5107377;27;20086;-46
2022/03/21 03:55:26;;;;;;;27.88;15.30;;;4.40;64.60;;;;;;5139761;27;20292;-47
2022/03/21 03:57:53;;;;;;;24.10;15.15;;;4.40;64.50;;;;;;5150415;27;20065;-46
2022/03/21 04:00:19;;;;;;;25.35;14.07;;;4.40;64.50;;;;;;5150528;27;20048;-45
2022/03/21 04:05:30;;;;;;;28.65;15.93;;;4.30;64.60;;;;;;5150265;27;20510;-45
2022/03/21 04:07:56;;;;;;;29.90;16.15;;;4.30;64.70;;;;;;5149014;27;20030;-46
2022/03/21 04:10:21;;;;;;;24.67;14.80;;;4.30;64.90;;;;;;5150238;27;20426;-48
2022/03/21 04:12:50;;;;;;;27.02;15.02;;;4.30;64.90;;;;;;5150260;27;20026;-47
2022/03/21 04:15:17;;;;;;;22.73;15.07;;;4.30;65.30;;;;;;5150308;27;20027;-46
2022/03/21 04:17:43;;;;;;;25.95;15.00;;;4.30;65.20;;;;;;5149598;27;20071;-47
2022/03/21 04:20:10;;;;;;;25.08;14.60;;;4.30;65.10;;;;;;5150251;27;20023;-46
2022/03/21 04:22:35;;;;;;;26.33;15.50;;;4.20;65.20;;;;;;5150067;27;20026;-46
2022/03/21 04:25:03;;;;;;;27.08;15.02;;;4.30;65.20;;;;;;5136283;27;20429;-45
2022/03/21 04:27:28;;;;;;;29.00;16.15;;;4.20;65.80;;;;;;5127302;27;20023;-45
2022/03/21 04:29:53;;;;;;;24.27;14.48;;;4.20;65.60;;;;;;5129574;28;20050;-45
2022/03/21 04:32:19;;;;;;;27.98;14.02;;;4.10;65.70;;;;;;5129377;28;20023;-46
2022/03/21 04:34:44;;;;;;;24.55;14.52;;;4.10;65.70;;;;;;5129299;28;20015;-46
2022/03/21 04:37:10;;;;;;;22.08;13.90;;;4.10;66.60;;;;;;5128436;28;20106;-46
2022/03/21 04:39:36;;;;;;;23.85;14.50;;;4.20;65.90;;;;;;5129112;28;20024;-45
2022/03/21 04:42:01;;;;;;;30.05;15.48;;;4.10;65.70;;;;;;5129409;28;20027;-45
2022/03/21 04:44:27;;;;;;;27.15;15.10;;;4.10;66.00;;;;;;5129344;28;20035;-48
2022/03/21 04:46:52;;;;;;;25.00;15.43;;;4.10;65.90;;;;;;5128488;27;20042;-45
2022/03/21 04:49:18;;;;;;;26.58;15.35;;;4.10;65.80;;;;;;5128991;28;20082;-48
2022/03/21 04:51:43;;;;;;;22.77;14.93;;;4.10;65.90;;;;;;5129405;28;20106;-46
2022/03/21 04:54:09;;;;;;;26.15;15.02;;;4.00;66.40;;;;;;5134358;27;20027;-45
2022/03/21 04:56:34;;;;;;;26.38;14.73;;;4.00;66.20;;;;;;5141251;27;20023;-45
2022/03/21 04:59:00;;;;;;;25.00;16.25;;;4.00;66.30;;;;;;5148363;27;20023;-46
2022/03/21 05:01:25;;;;;;;23.45;14.15;;;4.00;66.30;;;;;;5131692;27;20027;-45
2022/03/21 05:03:51;;;;;;;24.65;14.80;;;4.00;66.60;;;;;;5120418;28;20023;-46
2022/03/21 05:06:17;;;;;;;26.73;16.67;;;4.00;67.10;;;;;;5128425;28;20063;-49
2022/03/21 05:08:43;;;;;;;23.10;15.43;;;4.00;67.00;;;;;;5128826;27;20015;-47
2022/03/21 05:11:10;;;;;;;25.02;15.45;;;3.90;67.10;;;;;;5129104;27;20395;-46
2022/03/21 05:13:36;;;;;;;27.58;15.00;;;3.90;66.60;;;;;;5129061;27;20046;-46
2022/03/21 05:16:05;;;;;;;30.83;15.20;;;3.90;67.00;;;;;;5128154;27;20029;-46
2022/03/21 05:18:34;;;;;;;29.42;16.02;;;3.90;67.60;;;;;;5128839;27;20124;-46
2022/03/21 05:21:00;;;;;;;25.67;14.60;;;3.90;67.00;;;;;;5128744;27;20068;-49
2022/03/21 05:31:38;;;;;;;24.10;14.70;;;3.90;67.00;;;;;;5149358;27;20083;-48
2022/03/21 05:36:48;;;;;;;25.35;14.57;;;3.90;66.90;;;;;;5149074;27;20508;-47
2022/03/21 05:39:13;;;;;;;26.15;15.73;;;3.80;67.10;;;;;;5123754;27;20421;-46
2022/03/21 05:41:39;;;;;;;25.52;15.40;;;3.90;67.30;;;;;;5119999;27;20031;-45
2022/03/21 05:44:04;;;;;;;29.13;14.75;;;3.80;67.30;;;;;;5122469;27;20094;-47
2022/03/21 05:46:30;;;;;;;24.65;15.02;;;3.80;67.90;;;;;;5113378;27;20446;-46
2022/03/21 05:49:02;;;;;;;33.10;15.55;;;3.80;67.60;;;;;;5111788;28;20031;-47
2022/03/21 05:51:32;;;;;;;29.17;15.48;;;3.80;67.50;;;;;;5111283;28;20285;-47
2022/03/21 05:54:03;;;;;;;30.17;14.93;;;3.80;67.60;;;;;;5119965;27;20460;-46
2022/03/21 05:56:29;;;;;;;30.13;15.88;;;3.90;67.50;;;;;;5125433;27;20019;-47
2022/03/21 05:58:56;;;;;;;23.77;14.20;;;3.90;67.40;;;;;;5122243;27;20019;-46
2022/03/21 06:01:23;;;;;;;31.02;15.88;;;3.90;67.70;;;;;;5130628;27;20040;-46
2022/03/21 06:03:50;;;;;;;25.92;14.93;;;3.90;68.00;;;;;;5124641;27;20020;-46
2022/03/21 06:06:16;;;;;;;28.55;14.48;;;3.90;68.30;;;;;;5122905;27;20019;-46
2022/03/21 06:08:43;;;;;;;27.45;15.77;;;3.90;67.90;;;;;;5124834;27;20256;-46
2022/03/21 06:11:08;;;;;;;25.17;15.25;;;3.90;67.80;;;;;;5124507;27;20027;-47
2022/03/21 06:13:39;;;;;;;26.50;15.63;;;4.00;68.20;;;;;;5118220;27;20479;-46
2022/03/21 06:16:06;;;;;;;23.77;13.98;;;4.00;67.70;;;;;;5123609;27;20062;-47
2022/03/21 06:18:32;;;;;;;26.48;15.30;;;4.00;67.60;;;;;;5121626;27;20047;-47
2022/03/21 06:20:59;;;;;;;26.35;15.55;;;4.00;67.40;;;;;;5121912;27;20027;-47
2022/03/21 06:23:25;;;;;;;25.92;15.13;;;4.00;67.20;;;;;;5119404;27;20023;-47
2022/03/21 06:25:53;;;;;;;23.45;14.85;;;4.00;67.30;;;;;;5124659;27;20099;-46
2022/03/21 06:28:22;;;;;;;27.90;15.48;;;4.00;67.20;;;;;;5120722;27;20490;-47
2022/03/21 06:30:50;;;;;;;28.38;15.88;;;4.10;67.30;;;;;;5118631;27;20046;-47
2022/03/21 06:33:17;;;;;;;25.20;15.25;;;4.10;67.10;;;;;;5117819;27;20041;-47
2022/03/21 06:35:43;;;;;;;28.98;15.98;;;4.10;67.00;;;;;;5116400;27;20034;-47
2022/03/21 06:38:10;;;;;;;25.77;15.55;;;4.20;66.90;;;;;;5120222;27;20038;-47
2022/03/21 06:40:36;;;;;;;24.38;14.95;;;4.30;66.60;;;;;;5119037;27;20598;-46
2022/03/21 06:43:02;;;;;;;26.67;15.80;;;4.30;66.90;;;;;;5118998;27;20061;-48
2022/03/21 06:45:50;;;;;;;24.85;14.95;;;4.30;67.10;;;;;;5119938;27;20030;-47
2022/03/21 06:48:15;;;;;;;26.00;15.77;;;4.40;66.70;;;;;;5074985;28;20173;-47
2022/03/21 06:50:41;;;;;;;28.02;14.98;;;4.40;66.80;;;;;;5076502;28;20437;-47
2022/03/21 06:53:06;;;;;;;21.48;14.55;;;4.50;67.30;;;;;;5108251;27;20652;-47
2022/03/21 06:55:33;;;;;;;23.45;14.57;;;4.50;66.20;;;;;;5127811;27;20162;-47
2022/03/21 06:57:58;;;;;;;21.88;14.15;;;4.60;66.00;;;;;;5151368;27;20023;-47
2022/03/21 07:00:24;;;;;;;28.35;15.23;;;4.60;65.90;;;;;;5151406;27;20029;-46
2022/03/21 07:02:49;;;;;;;27.05;15.80;;;4.70;65.80;;;;;;5149921;27;20033;-47
2022/03/21 07:05:15;;;;;;;31.23;15.57;;;4.80;66.10;;;;;;5151880;27;20022;-49
2022/03/21 07:07:40;;;;;;;28.92;15.60;;;4.80;66.00;;;;;;5138025;27;20234;-48
2022/03/21 07:10:06;;;;;;;24.40;14.88;;;4.80;65.40;;;;;;5131364;27;20027;-47
2022/03/21 07:12:34;;;;;;;28.23;15.32;;;4.80;65.20;;;;;;5122104;27;20484;-47
2022/03/21 07:15:00;;;;;;;29.33;16.13;;;4.80;64.80;;;;;;5120681;27;20102;-47
2022/03/21 07:17:26;;;;;;;25.45;14.65;;;5.00;65.10;;;;;;5124427;27;20107;-49
2022/03/21 07:19:51;;;;;;;26.23;15.02;;;5.10;64.50;;;;;;5135455;27;20491;-49
2022/03/21 07:22:17;;;;;;;26.08;14.77;;;5.10;64.20;;;;;;5142243;27;20041;-47
2022/03/21 07:24:42;;;;;;;27.30;15.95;;;5.10;64.50;;;;;;5142820;27;20108;-47
2022/03/21 07:27:08;;;;;;;25.90;14.90;;;5.20;64.40;;;;;;5145811;27;20027;-47
2022/03/21 07:29:34;;;;;;;26.92;15.50;;;5.30;63.80;;;;;;5118060;27;20184;-47
2022/03/21 07:31:59;;;;;;;22.73;13.43;;;5.40;63.80;;;;;;5116020;27;20062;-48
2022/03/21 07:34:25;;;;;;;24.55;15.45;;;5.50;64.10;;;;;;5116707;27;20072;-47
2022/03/21 07:36:51;;;;;;;28.00;15.88;;;5.50;63.70;;;;;;5112778;27;20023;-48
2022/03/21 07:39:17;;;;;;;27.65;16.02;;;5.60;63.60;;;;;;5122833;27;20497;-48
2022/03/21 07:41:42;;;;;;;27.55;15.55;;;5.70;63.10;;;;;;5115350;27;20061;-46
2022/03/21 07:44:08;;;;;;;23.33;14.38;;;5.80;63.00;;;;;;5124761;27;20069;-47
2022/03/21 07:49:18;;;;;;;23.85;14.30;;;6.00;62.50;;;;;;5150283;27;20030;-48
2022/03/21 07:51:44;;;;;;;26.13;16.33;;;6.20;62.50;;;;;;5129426;27;20110;-47
2022/03/21 07:54:13;;;;;;;27.20;15.35;;;6.30;62.10;;;;;;5130299;27;20034;-48
2022/03/21 07:56:39;;;;;;;22.05;14.32;;;6.50;61.80;;;;;;5141859;27;20027;-48
2022/03/21 07:59:05;;;;;;;26.30;14.73;;;6.50;60.70;;;;;;5142609;27;20027;-48
2022/03/21 08:01:30;;;;;;;25.60;14.60;;;6.60;61.20;;;;;;5128792;27;20102;-49
2022/03/21 08:03:58;;;;;;;23.80;14.60;;;6.80;60.70;;;;;;5129332;27;20011;-48
2022/03/21 08:06:24;;;;;;;24.85;16.02;;;6.80;60.50;;;;;;5128561;27;20495;-48
2022/03/21 08:08:50;;;;;;;26.70;15.13;;;6.90;59.80;;;;;;5127247;27;20513;-47
2022/03/21 08:11:17;;;;;;;23.60;14.95;;;7.00;59.70;;;;;;5115622;27;20020;-46
2022/03/21 08:13:43;;;;;;;27.05;14.63;;;7.10;59.50;;;;;;5108122;28;20427;-50
2022/03/21 08:16:08;;;;;;;27.08;15.23;;;7.30;59.00;;;;;;5107892;28;20037;-47
2022/03/21 08:18:37;;;;;;;26.33;14.82;;;7.50;58.50;;;;;;5108508;28;20028;-47
2022/03/21 08:21:02;;;;;;;22.98;14.73;;;7.60;59.10;;;;;;5127855;27;20387;-47
2022/03/21 08:23:28;;;;;;;29.25;15.27;;;7.80;58.40;;;;;;5122559;27;20018;-47
2022/03/21 08:25:57;;;;;;;23.92;14.98;;;8.00;57.70;;;;;;5138939;27;20469;-47
2022/03/21 08:28:23;;;;;;;23.27;15.00;;;8.30;56.10;;;;;;5149400;27;20105;-47
2022/03/21 08:30:48;;;;;;;21.33;15.15;;;9.00;55.70;;;;;;5130923;27;20604;-49
2022/03/21 08:33:15;;;;;;;26.30;14.65;;;10.20;52.10;;;;;;5128571;27;20023;-49
2022/03/21 08:35:41;;;;;;;19.55;13.82;;;11.80;49.80;;;;;;5128040;27;20019;-47
2022/03/21 08:38:08;;;;;;;21.90;14.75;;;12.90;47.60;;;;;;5126028;27;20026;-50
2022/03/21 08:40:36;;;;;;;24.80;14.48;;;14.10;46.20;;;;;;5108022;28;20086;-50
2022/03/21 08:43:02;;;;;;;18.63;14.48;;;15.40;42.70;;;;;;5107959;28;20028;-47
2022/03/21 08:45:27;;;;;;;18.92;14.10;;;16.20;41.90;;;;;;5107386;28;20027;-46
2022/03/21 08:47:53;;;;;;;21.88;14.40;;;16.70;42.30;;;;;;5107231;28;20037;-45
2022/03/21 08:50:19;;;;;;;22.33;14.20;;;17.80;38.80;;;;;;5112745;28;20140;-47
2022/03/21 08:52:46;;;;;;;20.33;14.50;;;18.40;38.40;;;;;;5117635;28;20031;-45
2022/03/21 08:55:12;;;;;;;16.90;13.25;;;19.00;37.50;;;;;;5134563;27;20023;-46
2022/03/21 08:57:37;;;;;;;20.13;14.35;;;19.50;37.00;;;;;;5148432;27;20102;-46
2022/03/21 09:00:05;;;;;;;17.42;14.18;;;20.10;35.90;;;;;;5123651;27;20027;-47
2022/03/21 09:02:31;;;;;;;15.60;13.07;;;19.90;36.20;;;;;;5106711;28;20541;-46
2022/03/21 09:04:58;;;;;;;20.23;14.70;;;20.80;35.30;;;;;;5108002;28;20053;-45
2022/03/21 09:07:24;;;;;;;18.00;13.82;;;21.50;33.70;;;;;;5124019;28;20270;-46
2022/03/21 09:09:49;;;;;;;17.98;13.57;;;22.00;33.60;;;;;;5125298;27;20046;-48
2022/03/21 09:12:14;;;;;;;18.08;12.93;;;21.70;33.30;;;;;;5127448;27;20074;-48
2022/03/21 09:14:40;;;;;;;18.45;13.35;;;21.70;33.40;;;;;;5130299;27;20023;-47
2022/03/21 09:17:06;;;;;;;15.45;13.38;;;21.70;34.90;;;;;;5141954;27;20486;-48
2022/03/21 09:19:31;;;;;;;16.08;13.95;;;22.60;32.40;;;;;;5151016;27;20042;-47
2022/03/21 09:21:58;;;;;;;15.98;13.45;;;23.50;31.70;;;;;;5129861;27;20027;-47
2022/03/21 09:24:24;;;;;;;16.40;13.48;;;23.20;31.80;;;;;;5138118;27;20033;-45
2022/03/21 09:26:50;;;;;;;17.55;13.30;;;23.10;31.70;;;;;;5135487;27;20020;-47
2022/03/21 09:29:16;;;;;;;20.42;13.07;;;23.00;32.40;;;;;;5137892;27;20094;-46
2022/03/21 09:31:42;;;;;;;16.75;13.82;;;23.70;31.40;;;;;;5130218;27;20031;-47
2022/03/21 09:34:09;;;;;;;16.75;13.02;;;24.60;30.50;;;;;;5132333;27;20492;-46
2022/03/21 09:36:35;;;;;;;17.00;13.85;;;24.20;30.30;;;;;;5129840;27;20526;-46
2022/03/21 09:39:00;;;;;;;17.08;12.50;;;24.70;29.90;;;;;;5131653;27;20230;-49
2022/03/21 09:41:27;;;;;;;14.30;12.80;;;24.20;30.50;;;;;;5120113;27;20039;-46
2022/03/21 09:43:56;;;;;;;16.63;14.10;;;24.30;31.00;;;;;;5111601;28;20072;-47
2022/03/21 09:46:22;;;;;;;16.38;13.43;;;25.30;30.00;;;;;;5110531;28;20564;-47
2022/03/21 09:48:49;;;;;;;16.85;12.55;;;24.90;29.70;;;;;;5111442;28;20042;-47
2022/03/21 09:51:20;;;;;;;16.02;12.90;;;25.40;30.00;;;;;;5127854;27;20069;-48
2022/03/21 09:53:46;;;;;;;14.63;13.02;;;25.30;30.80;;;;;;5110802;27;20027;-47
2022/03/21 09:56:12;;;;;;;15.02;12.65;;;25.10;30.80;;;;;;5125950;27;20472;-49
2022/03/21 09:58:38;;;;;;;15.63;12.13;;;26.10;29.80;;;;;;5151786;27;20034;-48
2022/03/21 10:01:03;;;;;;;15.43;12.88;;;26.10;29.90;;;;;;5132022;27;20031;-50
2022/03/21 10:03:29;;;;;;;14.70;12.73;;;26.30;29.50;;;;;;5123218;27;20231;-47
2022/03/21 10:05:55;;;;;;;14.57;12.85;;;26.10;29.80;;;;;;5118841;27;20253;-46
2022/03/21 10:08:22;;;;;;;16.25;13.60;;;26.50;29.00;;;;;;5110771;28;20023;-47
2022/03/21 10:10:59;;;;;;;15.77;12.90;;;26.90;28.90;;;;;;5111085;27;20516;-46
2022/03/21 10:13:28;;;;;;;15.50;12.25;;;27.70;28.40;;;;;;5131033;27;20035;-45
2022/03/21 10:16:07;;;;;;;14.60;12.02;;;27.20;28.70;;;;;;5129958;27;20042;-46
2022/03/21 10:18:33;;;;;;;17.17;12.33;;;26.60;29.90;;;;;;5130841;27;20519;-46
2022/03/21 10:21:15;;;;;;;16.98;11.82;;;27.10;28.40;;;;;;5130569;27;20559;-46
2022/03/21 10:23:41;;;;;;;14.70;12.13;;;27.10;28.60;;;;;;5119556;27;20265;-48
2022/03/21 10:26:28;;;;;;;15.40;12.73;;;27.10;28.70;;;;;;5130990;27;20024;-46
2022/03/21 10:28:56;;;;;;;16.85;12.88;;;26.70;29.50;;;;;;5120382;27;20503;-45
2022/03/21 10:31:48;;;;;;;13.68;11.98;;;27.50;28.30;;;;;;5118984;27;20036;-47
2022/03/21 10:34:16;;;;;;;13.98;12.48;;;27.00;28.80;;;;;;5119931;27;20392;-46
2022/03/21 10:37:05;;;;;;;17.02;12.65;;;27.30;29.00;;;;;;5110799;27;20076;-46
2022/03/21 10:39:36;;;;;;;15.18;12.15;;;27.70;28.40;;;;;;5124758;27;20024;-48
2022/03/21 10:42:05;;;;;;;18.48;12.52;;;27.60;28.10;;;;;;5111116;27;20116;-46
2022/03/21 10:44:32;;;;;;;14.43;12.05;;;27.00;28.30;;;;;;5115434;27;20034;-48
2022/03/21 10:47:04;;;;;;;14.98;13.18;;;27.40;28.00;;;;;;5127144;27;20023;-47
2022/03/21 10:49:34;;;;;;;17.55;12.32;;;27.70;28.40;;;;;;5126859;27;20088;-48
2022/03/21 10:52:01;;;;;;;14.18;11.90;;;27.30;28.40;;;;;;5118709;27;20037;-47
2022/03/21 10:54:37;;;;;;;14.77;12.32;;;27.30;28.20;;;;;;5122248;27;20506;-50
2022/03/21 10:57:04;;;;;;;14.95;12.13;;;26.90;28.40;;;;;;5128485;27;20179;-50
2022/03/21 10:59:31;;;;;;;15.10;12.07;;;27.10;28.50;;;;;;5119296;27;20393;-47
2022/03/21 11:02:14;;;;;;;16.80;12.85;;;27.50;28.00;;;;;;5119183;27;20035;-50
2022/03/21 11:04:43;;;;;;;15.77;13.43;;;26.10;28.90;;;;;;5120915;27;20065;-47
2022/03/21 11:07:11;;;;;;;23.65;12.73;;;26.50;28.90;;;;;;5119739;27;20384;-50
2022/03/21 11:09:38;;;;;;;16.67;12.00;;;26.00;28.60;;;;;;5119500;27;20024;-47
2022/03/21 11:12:05;;;;;;;15.10;11.45;;;26.00;29.00;;;;;;5119823;27;20037;-48
2022/03/21 11:14:32;;;;;;;17.98;12.57;;;26.80;29.30;;;;;;5119125;27;20023;-48
2022/03/21 11:16:58;;;;;;;14.93;11.88;;;26.40;28.60;;;;;;5119082;27;20542;-46
2022/03/21 11:19:24;;;;;;;15.90;12.25;;;27.00;28.20;;;;;;5119693;27;20076;-49
2022/03/21 11:21:50;;;;;;;14.80;12.90;;;27.30;28.20;;;;;;5120988;27;20273;-47
2022/03/21 11:24:16;;;;;;;15.95;12.55;;;27.70;28.30;;;;;;5122085;27;20031;-48
2022/03/21 11:27:11;;;;;;;17.30;12.30;;;27.10;28.20;;;;;;5125118;27;20031;-46
2022/03/21 11:30:11;;;;;;;15.82;12.82;;;27.00;28.30;;;;;;5119800;27;20024;-49
2022/03/21 11:33:14;;;;;;;15.40;12.90;;;26.80;28.20;;;;;;5120617;27;20507;-50
2022/03/21 11:35:49;;;;;;;16.25;12.23;;;27.10;28.70;;;;;;5120479;27;20023;-47
2022/03/21 11:38:25;;;;;;;13.75;12.25;;;27.30;28.70;;;;;;5122331;27;20497;-47
2022/03/21 11:41:12;;;;;;;17.83;12.65;;;27.80;28.50;;;;;;5112845;27;20110;-50
2022/03/21 11:43:38;;;;;;;19.45;12.60;;;27.30;28.40;;;;;;5126101;27;20134;-49
2022/03/21 11:46:25;;;;;;;15.82;12.85;;;26.90;28.60;;;;;;5125957;27;20023;-46
2022/03/21 11:48:52;;;;;;;17.20;12.55;;;27.80;28.90;;;;;;5126765;27;20022;-47
2022/03/21 11:51:17;;;;;;;15.00;12.25;;;27.80;28.40;;;;;;5120749;27;20019;-51
2022/03/21 11:53:49;;;;;;;16.50;13.15;;;27.70;28.20;;;;;;5119480;27;20340;-47
2022/03/21 11:56:38;;;;;;;16.58;12.23;;;26.70;28.70;;;;;;5127950;27;20548;-47
2022/03/21 11:59:04;;;;;;;15.68;12.65;;;26.30;29.40;;;;;;5120414;27;20043;-50
2022/03/21 12:01:30;;;;;;;16.75;12.98;;;26.30;29.20;;;;;;5118596;27;20106;-46
2022/03/21 12:04:25;;;;;;;15.85;13.10;;;26.00;29.30;;;;;;5116988;27;20030;-46
2022/03/21 12:07:00;;;;;;;17.60;13.27;;;26.50;28.50;;;;;;5117853;27;20040;-47
2022/03/21 12:09:40;;;;;;;17.33;12.73;;;26.10;29.80;;;;;;5116711;27;20127;-46
2022/03/21 12:12:06;;;;;;;17.58;13.43;;;25.90;30.10;;;;;;5119957;27;20019;-49
2022/03/21 12:14:45;;;;;;;15.23;13.32;;;26.00;30.10;;;;;;5119307;27;20745;-47
2022/03/21 12:17:10;;;;;;;18.10;13.20;;;25.70;30.90;;;;;;5117945;27;20077;-49
2022/03/21 12:19:48;;;;;;;15.98;13.23;;;25.70;29.10;;;;;;5118373;27;20056;-48
2022/03/21 12:22:28;;;;;;;16.05;13.35;;;25.30;29.90;;;;;;5115681;27;20031;-47
2022/03/21 12:25:23;;;;;;;16.77;13.43;;;24.90;29.90;;;;;;5118370;27;20027;-47
2022/03/21 12:27:55;;;;;;;16.40;13.55;;;24.40;30.70;;;;;;5107711;27;20048;-46
2022/03/21 12:30:20;;;;;;;17.52;15.02;;;24.10;30.80;;;;;;5118370;28;20047;-47
2022/03/21 12:32:55;;;;;;;20.55;13.98;;;23.60;31.60;;;;;;5120165;28;20092;-46
2022/03/21 12:35:39;;;;;;;20.08;13.63;;;23.50;31.00;;;;;;5117043;28;20024;-46
2022/03/21 12:38:10;;;;;;;20.08;14.77;;;22.90;32.00;;;;;;5115222;27;20008;-46
2022/03/21 12:40:38;;;;;;;17.02;13.80;;;22.50;32.50;;;;;;5113554;27;20126;-46
2022/03/21 12:43:05;;;;;;;24.95;15.02;;;22.20;32.80;;;;;;5117890;27;20023;-46
2022/03/21 12:45:31;;;;;;;20.10;13.70;;;21.80;33.40;;;;;;5119535;27;20019;-46
2022/03/21 12:48:04;;;;;;;22.20;14.10;;;21.50;34.00;;;;;;5123574;27;20388;-48
2022/03/21 12:50:30;;;;;;;18.45;13.60;;;21.40;33.20;;;;;;5119970;27;20399;-46
2022/03/21 12:52:58;;;;;;;18.25;14.00;;;21.30;35.90;;;;;;5114317;27;20196;-46
2022/03/21 12:55:24;;;;;;;18.08;13.55;;;21.30;34.80;;;;;;5129818;27;20048;-45
2022/03/21 12:57:57;;;;;;;18.52;14.13;;;21.40;33.40;;;;;;5133671;27;20075;-45